createdAt,value
2019-02-14T00:00:58.333Z,6.93
2019-02-14T00:03:30.222Z,6.94
2019-02-14T00:06:03.546Z,6.93
2019-02-14T00:08:36.036Z,6.96
2019-02-14T00:11:10.924Z,6.95
2019-02-14T00:13:42.711Z,6.94
2019-02-14T00:16:15.519Z,6.91
2019-02-14T00:18:47.831Z,6.86
2019-02-14T00:21:19.711Z,6.89
2019-02-14T00:23:56.365Z,6.86
2019-02-14T00:26:28.255Z,6.85
2019-02-14T00:29:00.124Z,6.88
2019-02-14T00:31:31.990Z,6.91
2019-02-14T00:34:06.586Z,6.85
2019-02-14T00:36:38.488Z,6.76
2019-02-14T00:39:10.800Z,6.80
2019-02-14T00:41:42.807Z,6.68
2019-02-14T00:44:14.664Z,6.56
2019-02-14T00:46:47.236Z,6.59
2019-02-14T00:49:19.064Z,6.45
2019-02-14T00:51:50.855Z,6.39
2019-02-14T00:54:25.557Z,6.38
2019-02-14T00:56:57.345Z,6.32
2019-02-14T00:59:29.219Z,6.25
2019-02-14T01:02:01.071Z,6.23
2019-02-14T01:04:32.900Z,6.15
2019-02-14T01:07:04.981Z,6.13
2019-02-14T01:09:37.029Z,6.05
2019-02-14T01:12:09.778Z,6.03
2019-02-14T01:14:41.724Z,5.96
2019-02-14T01:17:13.607Z,5.94
2019-02-14T01:19:46.499Z,5.92
2019-02-14T01:22:18.424Z,5.88
2019-02-14T01:24:51.376Z,5.96
2019-02-14T01:27:23.319Z,5.98
2019-02-14T01:29:55.144Z,6.00
2019-02-14T01:32:26.922Z,5.90
2019-02-14T01:34:58.758Z,5.82
2019-02-14T01:37:30.679Z,5.90
2019-02-14T01:40:02.460Z,5.81
2019-02-14T01:42:34.491Z,5.89
2019-02-14T01:45:07.498Z,5.99
2019-02-14T01:47:39.754Z,6.00
2019-02-14T01:50:11.803Z,5.95
2019-02-14T01:52:43.678Z,5.95
2019-02-14T01:55:15.595Z,5.91
2019-02-14T01:57:48.566Z,5.93
2019-02-14T02:00:20.362Z,5.84
2019-02-14T02:02:52.291Z,5.81
2019-02-14T02:05:24.127Z,5.81
2019-02-14T02:07:55.971Z,5.74
2019-02-14T02:10:27.781Z,5.77
2019-02-14T02:13:01.227Z,5.74
2019-02-14T02:15:33.183Z,5.71
2019-02-14T02:18:05.018Z,5.64
2019-02-14T02:20:36.849Z,5.59
2019-02-14T02:23:08.690Z,5.51
2019-02-14T02:25:40.535Z,5.46
2019-02-14T02:28:12.367Z,5.47
2019-02-14T02:30:44.204Z,5.35
2019-02-14T02:33:18.770Z,5.36
2019-02-14T02:36:00.001Z,5.30
2019-02-14T02:38:24.465Z,5.27
2019-02-14T02:40:56.288Z,5.25
2019-02-14T02:43:28.110Z,5.25
2019-02-14T02:45:59.887Z,5.16
2019-02-14T02:48:33.987Z,5.20
2019-02-14T02:51:05.934Z,5.18
2019-02-14T02:53:37.811Z,5.21
2019-02-14T02:56:09.660Z,5.24
2019-02-14T02:58:41.530Z,5.26
2019-02-14T03:01:13.717Z,5.29
2019-02-14T03:03:45.906Z,5.17
2019-02-14T03:06:17.759Z,5.13
2019-02-14T03:08:49.593Z,5.22
2019-02-14T03:11:21.428Z,5.25
2019-02-14T03:13:55.243Z,5.07
2019-02-14T03:16:28.831Z,5.19
2019-02-14T03:19:00.966Z,5.13
2019-02-14T03:21:34.108Z,5.00
2019-02-14T03:24:08.436Z,5.17
2019-02-14T03:26:40.252Z,5.16
2019-02-14T03:29:12.038Z,5.10
2019-02-14T03:31:43.894Z,5.04
2019-02-14T03:34:16.208Z,5.03
2019-02-14T03:36:48.388Z,5.00
2019-02-14T03:39:20.271Z,5.07
2019-02-14T03:41:52.338Z,5.10
2019-02-14T03:44:24.759Z,5.12
2019-02-14T03:46:56.602Z,5.13
2019-02-14T03:49:28.548Z,5.09
2019-02-14T03:52:00.355Z,5.05
2019-02-14T03:54:32.146Z,4.97
2019-02-14T03:57:03.982Z,4.96
2019-02-14T03:59:35.833Z,4.97
2019-02-14T04:02:07.660Z,4.89
2019-02-14T04:04:39.488Z,4.84
2019-02-14T04:07:13.353Z,4.83
2019-02-14T04:09:44.844Z,4.86
2019-02-14T04:12:19.452Z,4.80
2019-02-14T04:14:51.235Z,4.76
2019-02-14T04:17:23.246Z,4.74
2019-02-14T04:19:56.661Z,4.74
2019-02-14T04:22:28.629Z,4.73
2019-02-14T04:25:00.531Z,4.77
2019-02-14T04:27:32.690Z,4.76
2019-02-14T04:30:06.464Z,4.68
2019-02-14T04:32:38.780Z,4.63
2019-02-14T04:35:11.144Z,4.61
2019-02-14T04:37:43.004Z,4.69
2019-02-14T04:40:14.778Z,4.65
2019-02-14T04:42:46.649Z,4.61
2019-02-14T04:45:18.437Z,4.57
2019-02-14T04:47:50.322Z,4.55
2019-02-14T04:50:22.466Z,4.54
2019-02-14T04:52:54.308Z,4.61
2019-02-14T04:55:26.083Z,4.64
2019-02-14T04:57:57.934Z,4.62
2019-02-14T05:00:29.731Z,4.63
2019-02-14T05:03:01.611Z,4.63
2019-02-14T05:05:33.661Z,4.63
2019-02-14T05:08:05.960Z,4.64
2019-02-14T05:10:37.748Z,4.52
2019-02-14T05:13:10.663Z,4.45
2019-02-14T05:15:42.483Z,4.40
2019-02-14T05:18:16.107Z,4.32
2019-02-14T05:20:47.965Z,4.33
2019-02-14T05:23:21.929Z,4.31
2019-02-14T05:25:53.736Z,4.23
2019-02-14T05:28:25.578Z,4.31
2019-02-14T05:30:57.414Z,4.31
2019-02-14T05:33:29.662Z,4.29
2019-02-14T05:36:01.488Z,4.26
2019-02-14T05:38:33.691Z,4.19
2019-02-14T05:41:05.569Z,4.10
2019-02-14T05:43:37.591Z,4.13
2019-02-14T05:46:10.315Z,4.10
2019-02-14T05:48:42.135Z,4.12
2019-02-14T05:51:16.299Z,4.06
2019-02-14T05:53:48.120Z,4.14
2019-02-14T05:56:19.942Z,4.05
2019-02-14T05:58:51.801Z,4.10
2019-02-14T06:01:24.842Z,4.10
2019-02-14T06:03:56.652Z,4.11
2019-02-14T06:06:29.005Z,4.10
2019-02-14T06:09:00.811Z,4.09
2019-02-14T06:11:32.826Z,4.09
2019-02-14T06:14:04.625Z,4.17
2019-02-14T06:16:36.502Z,4.11
2019-02-14T06:19:12.721Z,4.17
2019-02-14T06:21:44.573Z,4.05
2019-02-14T06:24:16.462Z,3.94
2019-02-14T06:26:51.215Z,3.94
2019-02-14T06:29:23.108Z,3.95
2019-02-14T06:31:55.973Z,3.93
2019-02-14T06:34:27.867Z,3.92
2019-02-14T06:36:59.663Z,3.95
2019-02-14T06:39:33.126Z,3.95
2019-02-14T06:42:04.916Z,3.93
2019-02-14T06:44:36.743Z,3.93
2019-02-14T06:47:08.569Z,3.97
2019-02-14T06:49:40.420Z,4.04
2019-02-14T06:52:12.300Z,4.13
2019-02-14T06:54:44.093Z,4.18
2019-02-14T06:57:16.102Z,4.06
2019-02-14T06:59:47.943Z,3.93
2019-02-14T07:02:19.770Z,3.90
2019-02-14T07:04:51.573Z,3.98
2019-02-14T07:07:23.397Z,3.86
2019-02-14T07:09:55.243Z,3.76
2019-02-14T07:12:27.074Z,3.65
2019-02-14T07:15:00.367Z,3.60
2019-02-14T07:17:32.221Z,3.57
2019-02-14T07:20:04.222Z,3.67
2019-02-14T07:22:36.075Z,3.76
2019-02-14T07:25:10.546Z,3.78
2019-02-14T07:27:42.375Z,3.86
2019-02-14T07:30:16.642Z,3.84
2019-02-14T07:32:49.010Z,3.77
2019-02-14T07:35:21.340Z,3.76
2019-02-14T07:37:53.149Z,3.73
2019-02-14T07:40:24.952Z,3.71
2019-02-14T07:42:56.801Z,3.69
2019-02-14T07:45:28.682Z,3.71
2019-02-14T07:48:00.550Z,3.78
2019-02-14T07:50:32.480Z,3.87
2019-02-14T07:53:04.485Z,3.83
2019-02-14T07:55:36.313Z,3.82
2019-02-14T07:58:09.467Z,3.90
2019-02-14T08:00:41.331Z,3.94
2019-02-14T08:03:15.625Z,4.00
2019-02-14T08:05:47.423Z,4.15
2019-02-14T08:08:19.236Z,4.16
2019-02-14T08:10:51.070Z,4.32
2019-02-14T08:13:22.957Z,4.38
2019-02-14T08:15:54.796Z,4.51
2019-02-14T08:18:26.590Z,4.55
2019-02-14T08:20:58.903Z,4.73
2019-02-14T08:23:30.775Z,4.73
2019-02-14T08:26:10.551Z,4.91
2019-02-14T08:28:37.359Z,4.84
2019-02-14T08:31:09.160Z,5.06
2019-02-14T08:33:41.061Z,5.17
2019-02-14T08:36:12.928Z,5.34
2019-02-14T08:38:44.791Z,5.60
2019-02-14T08:41:18.286Z,5.70
2019-02-14T08:43:50.093Z,5.88
2019-02-14T08:46:21.910Z,6.08
2019-02-14T08:48:53.764Z,6.23
2019-02-14T08:51:25.559Z,6.45
2019-02-14T08:53:57.631Z,6.88
2019-02-14T08:56:29.548Z,6.82
2019-02-14T08:59:01.397Z,7.06
2019-02-14T09:01:35.935Z,7.17
2019-02-14T09:04:09.156Z,7.39
2019-02-14T09:06:40.924Z,7.51
2019-02-14T09:09:13.114Z,7.98
2019-02-14T09:11:45.076Z,8.50
2019-02-14T09:14:16.905Z,9.91
2019-02-14T09:16:49.103Z,11.42
2019-02-14T09:19:20.930Z,12.46
2019-02-14T09:21:52.774Z,13.67
2019-02-14T09:24:24.638Z,16.49
2019-02-14T09:26:56.484Z,19.30
2019-02-14T09:29:28.370Z,22.22
2019-02-14T09:32:00.204Z,25.13
2019-02-14T09:34:33.697Z,27.76
2019-02-14T09:37:05.589Z,28.25
2019-02-14T09:39:40.978Z,28.28
2019-02-14T09:42:11.539Z,30.14
2019-02-14T09:44:43.346Z,29.33
2019-02-14T09:47:15.230Z,31.19
2019-02-14T09:49:47.979Z,31.86
2019-02-14T09:52:19.849Z,30.49
2019-02-14T09:54:51.653Z,27.87
2019-02-14T09:57:23.629Z,27.25
2019-02-14T09:59:55.421Z,28.98
2019-02-14T10:02:29.988Z,30.59
2019-02-14T10:05:01.879Z,30.43
2019-02-14T10:07:33.733Z,30.76
2019-02-14T10:10:06.640Z,30.02
2019-02-14T10:12:38.508Z,29.05
2019-02-14T10:15:10.598Z,28.90
2019-02-14T10:17:42.476Z,30.26
2019-02-14T10:20:15.555Z,30.88
2019-02-14T10:22:48.499Z,32.19
2019-02-14T10:25:20.371Z,31.67
2019-02-14T10:27:52.265Z,31.21
2019-02-14T10:30:24.124Z,31.15
2019-02-14T10:32:56.005Z,32.53
2019-02-14T10:35:27.826Z,29.81
2019-02-14T10:37:59.668Z,29.38
2019-02-14T10:40:31.458Z,30.00
2019-02-14T10:43:05.090Z,31.12
2019-02-14T10:45:36.993Z,34.28
2019-02-14T10:48:08.853Z,33.13
2019-02-14T10:50:42.216Z,34.90
2019-02-14T10:53:14.150Z,36.75
2019-02-14T10:55:45.990Z,34.85
2019-02-14T10:58:17.796Z,35.88
2019-02-14T11:00:50.150Z,35.11
2019-02-14T11:03:24.954Z,33.73
2019-02-14T11:05:58.571Z,29.86
2019-02-14T11:08:31.961Z,29.79
2019-02-14T11:11:04.142Z,29.44
2019-02-14T11:13:36.452Z,27.66
2019-02-14T11:16:09.801Z,27.35
2019-02-14T11:18:44.534Z,26.38
2019-02-14T11:21:15.876Z,26.56
2019-02-14T11:23:47.754Z,26.94
2019-02-14T11:26:20.387Z,27.08
2019-02-14T11:28:52.177Z,25.98
2019-02-14T11:31:25.400Z,26.46
2019-02-14T11:33:57.272Z,26.47
2019-02-14T11:36:29.199Z,26.78
2019-02-14T11:39:01.047Z,26.21
2019-02-14T11:41:34.385Z,26.27
2019-02-14T11:44:06.251Z,25.87
2019-02-14T11:46:38.117Z,26.63
2019-02-14T11:49:10.482Z,25.86
2019-02-14T11:51:42.341Z,26.21
2019-02-14T11:54:14.236Z,25.93
2019-02-14T11:56:46.223Z,27.08
2019-02-14T11:59:21.030Z,27.58
2019-02-14T12:01:55.373Z,27.61
2019-02-14T12:04:26.744Z,26.53
2019-02-14T12:06:58.813Z,25.95
2019-02-14T12:09:32.533Z,26.24
2019-02-14T12:12:04.371Z,25.92
2019-02-14T12:14:36.281Z,25.85
2019-02-14T12:17:08.124Z,25.51
2019-02-14T12:19:40.024Z,25.13
2019-02-14T12:22:14.195Z,26.51
2019-02-14T12:24:46.091Z,26.99
2019-02-14T12:27:18.388Z,26.20
2019-02-14T12:29:50.193Z,25.93
2019-02-14T12:32:23.759Z,26.26
2019-02-14T12:34:55.582Z,25.01
2019-02-14T12:37:27.593Z,25.71
2019-02-14T12:39:59.386Z,25.35
2019-02-14T12:42:32.919Z,25.62
2019-02-14T12:45:04.907Z,25.57
2019-02-14T12:47:36.750Z,25.17
2019-02-14T12:50:09.290Z,25.12
2019-02-14T12:52:41.175Z,25.35
2019-02-14T12:55:13.993Z,25.36
2019-02-14T12:57:45.953Z,25.87
2019-02-14T13:00:19.588Z,25.36
2019-02-14T13:02:53.664Z,25.31
2019-02-14T13:05:26.113Z,24.75
2019-02-14T13:07:59.929Z,24.14
2019-02-14T13:10:31.442Z,24.10
2019-02-14T13:13:03.308Z,23.78
2019-02-14T13:15:35.317Z,22.94
2019-02-14T13:18:07.343Z,21.88
2019-02-14T13:20:39.170Z,21.44
2019-02-14T13:23:11.095Z,21.33
2019-02-14T13:25:43.468Z,20.98
2019-02-14T13:28:15.313Z,20.90
2019-02-14T13:30:47.217Z,20.59
2019-02-14T13:33:19.006Z,20.63
2019-02-14T13:35:50.867Z,20.90
2019-02-14T13:38:22.726Z,20.97
2019-02-14T13:40:56.952Z,20.75
2019-02-14T13:43:30.541Z,20.36
2019-02-14T13:46:03.475Z,20.86
2019-02-14T13:48:36.445Z,20.91
2019-02-14T13:51:08.221Z,20.75
2019-02-14T13:53:40.390Z,20.90
2019-02-14T13:56:12.192Z,20.75
2019-02-14T13:58:44.089Z,20.92
2019-02-14T14:01:15.940Z,20.94
2019-02-14T14:03:48.256Z,20.93
2019-02-14T14:06:20.145Z,21.11
2019-02-14T14:08:53.544Z,20.91
2019-02-14T14:11:25.965Z,20.99
2019-02-14T14:13:57.726Z,21.21
2019-02-14T14:16:30.212Z,21.20
2019-02-14T14:19:06.277Z,21.48
2019-02-14T14:21:35.642Z,21.19
2019-02-14T14:24:09.112Z,21.23
2019-02-14T14:26:41.016Z,21.29
2019-02-14T14:29:12.822Z,21.21
2019-02-14T14:31:44.654Z,21.28
2019-02-14T14:34:17.377Z,21.12
2019-02-14T14:36:49.221Z,21.22
2019-02-14T14:39:22.671Z,21.37
2019-02-14T14:41:54.578Z,21.31
2019-02-14T14:44:40.481Z,21.42
2019-02-14T14:47:23.511Z,21.08
2019-02-14T14:49:55.358Z,21.03
2019-02-14T14:52:29.118Z,20.99
2019-02-14T14:55:03.120Z,20.88
2019-02-14T14:57:34.951Z,20.91
2019-02-14T15:00:06.997Z,20.76
2019-02-14T15:02:38.907Z,20.62
2019-02-14T15:05:10.772Z,20.85
2019-02-14T15:07:42.677Z,20.85
2019-02-14T15:10:14.545Z,20.77
2019-02-14T15:12:48.112Z,20.65
2019-02-14T15:15:20.302Z,20.57
2019-02-14T15:17:52.222Z,20.68
2019-02-14T15:20:25.069Z,20.71
2019-02-14T15:22:56.912Z,20.74
2019-02-14T15:25:28.751Z,20.71
2019-02-14T15:28:00.731Z,20.75
2019-02-14T15:30:32.613Z,20.63
2019-02-14T15:33:04.409Z,20.62
2019-02-14T15:35:36.253Z,20.73
2019-02-14T15:38:09.832Z,20.63
2019-02-14T15:40:41.702Z,20.68
2019-02-14T15:43:13.526Z,20.53
2019-02-14T15:45:45.352Z,20.46
2019-02-14T15:48:17.179Z,20.56
2019-02-14T15:50:49.051Z,20.66
2019-02-14T15:53:22.297Z,20.60
2019-02-14T15:55:54.207Z,20.61
2019-02-14T15:58:26.014Z,20.60
2019-02-14T16:00:59.184Z,20.57
2019-02-14T16:03:31.233Z,20.48
2019-02-14T16:06:04.536Z,20.46
2019-02-14T16:08:37.563Z,20.42
2019-02-14T16:11:11.420Z,20.54
2019-02-14T16:13:46.298Z,20.40
2019-02-14T16:16:21.777Z,20.45
2019-02-14T16:18:52.508Z,20.40
2019-02-14T16:21:24.449Z,20.46
2019-02-14T16:23:56.306Z,20.59
2019-02-14T16:26:29.299Z,20.47
2019-02-14T16:29:02.133Z,20.46
2019-02-14T16:31:34.739Z,20.52
2019-02-14T16:34:06.567Z,20.34
2019-02-14T16:36:38.368Z,20.47
2019-02-14T16:39:10.284Z,20.41
2019-02-14T16:41:42.165Z,20.30
2019-02-14T16:44:13.997Z,20.30
2019-02-14T16:46:45.845Z,20.34
2019-02-14T16:49:18.353Z,20.29
2019-02-14T16:51:50.169Z,20.32
2019-02-14T16:54:21.974Z,20.16
2019-02-14T16:56:53.805Z,20.26
2019-02-14T16:59:25.620Z,20.20
2019-02-14T17:01:59.995Z,20.18
2019-02-14T17:04:31.961Z,20.19
2019-02-14T17:07:03.880Z,20.06
2019-02-14T17:09:37.011Z,19.89
2019-02-14T17:12:08.795Z,19.86
2019-02-14T17:14:40.629Z,19.89
2019-02-14T17:17:12.470Z,19.77
2019-02-14T17:19:44.666Z,19.69
2019-02-14T17:22:16.534Z,19.55
2019-02-14T17:24:48.758Z,19.69
2019-02-14T17:27:20.636Z,19.53
2019-02-14T17:29:52.607Z,19.46
2019-02-14T17:32:24.427Z,19.46
2019-02-14T17:34:56.315Z,19.33
2019-02-14T17:37:28.140Z,19.16
2019-02-14T17:40:01.498Z,18.98
2019-02-14T17:42:35.125Z,18.76
2019-02-14T17:45:07.371Z,18.58
2019-02-14T17:47:39.430Z,18.36
2019-02-14T17:50:11.520Z,18.27
2019-02-14T17:52:43.326Z,18.30
2019-02-14T17:55:16.798Z,18.23
2019-02-14T17:57:48.653Z,18.21
2019-02-14T18:00:21.162Z,17.95
2019-02-14T18:02:53.017Z,17.87
2019-02-14T18:05:24.999Z,17.93
2019-02-14T18:07:58.221Z,17.85
2019-02-14T18:10:30.343Z,17.74
2019-02-14T18:13:02.184Z,17.75
2019-02-14T18:15:35.669Z,17.64
2019-02-14T18:18:11.386Z,17.57
2019-02-14T18:20:43.333Z,17.44
2019-02-14T18:23:16.577Z,17.36
2019-02-14T18:25:48.406Z,17.29
2019-02-14T18:28:20.516Z,17.26
2019-02-14T18:30:52.802Z,17.17
2019-02-14T18:33:24.644Z,17.08
2019-02-14T18:35:56.461Z,16.84
2019-02-14T18:38:30.231Z,16.52
2019-02-14T18:41:04.177Z,16.25
2019-02-14T18:43:38.436Z,15.96
2019-02-14T18:46:12.234Z,15.76
2019-02-14T18:48:44.325Z,15.56
2019-02-14T18:51:16.140Z,15.44
2019-02-14T18:53:47.997Z,15.32
2019-02-14T18:56:19.809Z,15.19
2019-02-14T18:58:51.703Z,15.08
2019-02-14T19:01:23.841Z,14.96
2019-02-14T19:03:58.692Z,14.81
2019-02-14T19:06:30.960Z,14.67
2019-02-14T19:09:03.400Z,14.52
2019-02-14T19:11:37.533Z,14.35
2019-02-14T19:14:09.591Z,14.11
2019-02-14T19:16:41.408Z,13.94
2019-02-14T19:19:15.993Z,13.84
2019-02-14T19:21:48.450Z,13.65
2019-02-14T19:24:20.402Z,13.49
2019-02-14T19:26:52.204Z,13.39
2019-02-14T19:29:24.164Z,13.28
2019-02-14T19:31:56.435Z,13.12
2019-02-14T19:34:28.356Z,12.92
2019-02-14T19:37:00.327Z,12.80
2019-02-14T19:39:32.138Z,12.74
2019-02-14T19:42:04.086Z,12.66
2019-02-14T19:44:37.494Z,12.60
2019-02-14T19:47:09.319Z,12.54
2019-02-14T19:49:41.155Z,12.57
2019-02-14T19:52:12.966Z,12.32
2019-02-14T19:54:44.835Z,12.25
2019-02-14T19:57:16.653Z,12.12
2019-02-14T19:59:54.898Z,12.04
2019-02-14T20:02:26.703Z,11.98
2019-02-14T20:04:59.296Z,11.93
2019-02-14T20:07:31.235Z,12.02
2019-02-14T20:10:03.544Z,11.96
2019-02-14T20:12:35.361Z,11.98
2019-02-14T20:15:09.283Z,11.97
2019-02-14T20:17:44.140Z,11.96
2019-02-14T20:20:15.975Z,11.93
2019-02-14T20:22:47.791Z,11.89
2019-02-14T20:25:21.110Z,11.85
2019-02-14T20:27:54.768Z,11.81
2019-02-14T20:30:26.801Z,11.78
2019-02-14T20:33:04.753Z,11.72
2019-02-14T20:35:32.610Z,11.67
2019-02-14T20:38:04.486Z,11.59
2019-02-14T20:40:37.979Z,11.58
2019-02-14T20:43:09.820Z,11.55
2019-02-14T20:45:41.873Z,11.57
2019-02-14T20:48:13.966Z,11.54
2019-02-14T20:50:46.570Z,11.13
2019-02-14T20:53:18.895Z,11.28
2019-02-14T20:55:50.915Z,11.21
2019-02-14T20:58:22.742Z,11.02
2019-02-14T21:00:54.723Z,10.88
2019-02-14T21:03:28.012Z,10.68
2019-02-14T21:05:59.868Z,10.61
2019-02-14T21:08:31.722Z,10.60
2019-02-14T21:11:03.707Z,10.51
2019-02-14T21:13:36.103Z,10.45
2019-02-14T21:16:08.004Z,10.36
2019-02-14T21:18:41.388Z,10.26
2019-02-14T21:21:13.390Z,10.26
2019-02-14T21:23:45.703Z,10.33
2019-02-14T21:26:17.968Z,10.13
2019-02-14T21:28:49.863Z,10.06
2019-02-14T21:31:21.746Z,10.00
2019-02-14T21:33:53.564Z,10.04
2019-02-14T21:36:25.414Z,10.01
2019-02-14T21:38:57.312Z,9.99
2019-02-14T21:41:29.311Z,9.96
2019-02-14T21:44:01.236Z,9.84
2019-02-14T21:46:33.066Z,9.73
2019-02-14T21:49:05.023Z,9.74
2019-02-14T21:51:41.993Z,9.73
2019-02-14T21:54:17.398Z,9.75
2019-02-14T21:56:47.608Z,9.75
2019-02-14T21:59:19.451Z,9.70
2019-02-14T22:01:51.381Z,9.75
2019-02-14T22:04:23.332Z,9.69
2019-02-14T22:06:55.146Z,9.71
2019-02-14T22:09:32.770Z,9.67
2019-02-14T22:12:04.600Z,9.60
2019-02-14T22:14:36.846Z,9.43
2019-02-14T22:17:09.568Z,9.36
2019-02-14T22:19:42.941Z,9.36
2019-02-14T22:22:15.100Z,9.30
2019-02-14T22:24:47.037Z,9.25
2019-02-14T22:27:18.913Z,9.33
2019-02-14T22:29:50.757Z,9.42
2019-02-14T22:32:22.656Z,9.49
2019-02-14T22:34:54.498Z,9.45
2019-02-14T22:37:26.456Z,9.16
2019-02-14T22:39:59.939Z,9.15
2019-02-14T22:42:31.924Z,9.04
2019-02-14T22:45:04.172Z,8.86
2019-02-14T22:47:36.044Z,8.80
2019-02-14T22:50:08.722Z,8.78
2019-02-14T22:52:40.559Z,8.68
2019-02-14T22:55:13.847Z,8.69
2019-02-14T22:57:46.709Z,8.61
2019-02-14T23:00:30.469Z,8.52
2019-02-14T23:03:03.668Z,8.56
2019-02-14T23:05:36.935Z,8.47
2019-02-14T23:08:08.764Z,8.46
2019-02-14T23:10:43.855Z,8.40
2019-02-14T23:13:15.816Z,8.33
2019-02-14T23:15:47.635Z,8.26
2019-02-14T23:18:19.497Z,8.23
2019-02-14T23:20:51.352Z,8.32
2019-02-14T23:23:23.248Z,8.42
2019-02-14T23:25:55.089Z,8.43
2019-02-14T23:28:26.924Z,8.46
2019-02-14T23:30:59.077Z,8.60
2019-02-14T23:33:30.926Z,8.53
2019-02-14T23:36:02.761Z,8.32
2019-02-14T23:38:34.589Z,8.36
2019-02-14T23:41:06.401Z,8.24
2019-02-14T23:43:38.265Z,8.04
2019-02-14T23:46:11.647Z,8.13
2019-02-14T23:48:43.960Z,8.05
2019-02-14T23:51:15.831Z,8.00
2019-02-14T23:53:48.796Z,7.90
2019-02-14T23:56:20.986Z,7.85
2019-02-14T23:58:52.885Z,7.89
